Cementos Cantabrico — EHCV — position and weather

sailwx.info

Track history (hours):
 
Tides and Currents Weather Stations Pressure Air Temp Water Temp Dewpoint Dewpoint Depression Visibility Wind Speed Wind Dir Waves Ship Positions

Cementos Cantabrico

Last reported at 2018-Feb-24 11:56 UTC. Time now 2018-Feb-24 12:16 UTC.
Position N 53°20' W 002°45'.

Length 118 m; draft 4.7 m.

Type: Cargo ship. MMSI: 224750000.

Date/timePositionNaut miles runAvg speedWind from/ knotsBaromVisibWave heightAir tempDewpointWater temp
2018-Feb-24 11:56N 53°20' W 002°45'0 0.0
2018-Feb-24 11:29N 53°20' W 002°45'0 0.0
2018-Feb-24 10:59N 53°20' W 002°45'0 0.0
2018-Feb-24 10:29N 53°20' W 002°45'0 0.0
2018-Feb-24 09:59N 53°20' W 002°45'0 0.0
2018-Feb-24 09:29N 53°20' W 002°45'0 0.0
2018-Feb-24 08:59N 53°20' W 002°45'0 0.0
2018-Feb-24 08:29N 53°20' W 002°45'0 0.0
2018-Feb-24 07:59N 53°20' W 002°45'0 0.0
2018-Feb-24 07:29N 53°20' W 002°45'0 0.0
2018-Feb-24 06:59N 53°20' W 002°45'0 0.0
2018-Feb-24 06:29N 53°20' W 002°45'0 0.0
2018-Feb-24 05:59N 53°20' W 002°45'0 0.0
2018-Feb-24 05:29N 53°20' W 002°45'0 0.0
2018-Feb-24 04:59N 53°20' W 002°45'0 0.0
2018-Feb-24 04:26N 53°20' W 002°45'0 0.0
2018-Feb-24 03:59N 53°20' W 002°45'0 0.0
2018-Feb-24 03:29N 53°20' W 002°45'0 0.0
2018-Feb-24 02:59N 53°20' W 002°45'0 0.0
2018-Feb-24 02:29N 53°20' W 002°45'0 0.0
2018-Feb-24 01:56N 53°20' W 002°45'0 0.0
2018-Feb-24 01:29N 53°20' W 002°45'0 0.0
2018-Feb-24 00:59N 53°20' W 002°45'0 0.0
2018-Feb-24 00:29N 53°20' W 002°45'0 0.0
2018-Feb-23 23:59N 53°20' W 002°45'0 0.0
2018-Feb-23 23:29N 53°20' W 002°45'0 0.0
2018-Feb-23 22:59N 53°20' W 002°45'0 0.0
2018-Feb-23 22:29N 53°20' W 002°45'0 0.0
2018-Feb-23 21:59N 53°20' W 002°45'0 0.0
2018-Feb-23 21:29N 53°20' W 002°45'0 0.0
2018-Feb-23 20:59N 53°20' W 002°45'0 0.0
2018-Feb-23 20:29N 53°20' W 002°45'0 0.0
2018-Feb-23 19:59N 53°20' W 002°45'0 0.0
2018-Feb-23 19:29N 53°20' W 002°45'0 0.0
2018-Feb-23 18:59N 53°20' W 002°45'0 0.0
2018-Feb-23 18:29N 53°20' W 002°45'0 0.0
2018-Feb-23 17:53N 53°20' W 002°45'0 0.0
2018-Feb-23 17:29N 53°20' W 002°45'0 0.0
2018-Feb-23 16:59N 53°20' W 002°45'0 0.0
2018-Feb-23 16:29N 53°20' W 002°45'0 0.0
2018-Feb-23 15:59N 53°20' W 002°45'0 0.0
2018-Feb-23 15:29N 53°20' W 002°45'0 0.0
2018-Feb-23 14:59N 53°20' W 002°45'0 0.0
2018-Feb-23 14:29N 53°20' W 002°45'0 0.0
2018-Feb-23 13:59N 53°20' W 002°45'0 0.0
2018-Feb-23 13:25N 53°20' W 002°45'0 0.0
2018-Feb-23 12:55N 53°20' W 002°45'0 0.0
2018-Feb-23 12:28N 53°20' W 002°45'0 0.0
2018-Feb-23 11:58N 53°20' W 002°45'0 0.0
2018-Feb-23 11:28N 53°20' W 002°45'0 0.0
2018-Feb-23 10:58N 53°20' W 002°45'0 0.0
2018-Feb-23 10:28N 53°20' W 002°45'0 0.0
2018-Feb-23 09:58N 53°20' W 002°45'0 0.0
2018-Feb-23 09:28N 53°20' W 002°45'0 0.0
2018-Feb-23 08:58N 53°20' W 002°45'0 0.0
2018-Feb-23 08:28N 53°20' W 002°45'0 0.0
2018-Feb-23 07:58N 53°20' W 002°45'0 0.0
2018-Feb-23 07:28N 53°20' W 002°45'0 0.2
2018-Feb-23 07:00N 53°20' W 002°45'1 2.6
2018-Feb-23 06:30N 53°19' W 002°45'2 4.5
2018-Feb-23 06:00N 53°18' W 002°48'2 3.8
2018-Feb-23 05:30N 53°17' W 002°51'2 3.9
2018-Feb-23 05:00N 53°18' W 002°54'2 3.6
2018-Feb-23 04:30N 53°19' W 002°56'1 1.1
2018-Feb-23 04:00N 53°19' W 002°57'2 3.9
2018-Feb-23 03:30N 53°21' W 002°58'3 5.3
2018-Feb-23 02:59N 53°24' W 003°00'611.9
2018-Feb-23 02:30N 53°29' W 003°05'5 9.6
2018-Feb-23 02:00N 53°32' W 003°11'510.4
2018-Feb-23 01:30N 53°31' W 003°20'4 7.1
2018-Feb-23 01:00N 53°31' W 003°26'2 2.9
2018-Feb-23 00:27N 53°29' W 003°27'0 0.0
2018-Feb-23 00:00N 53°29' W 003°27'0 0.1
2018-Feb-22 23:21N 53°29' W 003°27'0 0.1
2018-Feb-22 23:00N 53°29' W 003°27'0 0.1
2018-Feb-22 22:30N 53°29' W 003°27'0 0.1
2018-Feb-22 22:00N 53°29' W 003°27'0 0.0
2018-Feb-22 21:30N 53°29' W 003°27'0 0.0
2018-Feb-22 21:00N 53°29' W 003°27'0 0.0
2018-Feb-22 20:29N 53°29' W 003°27'0 0.0
2018-Feb-22 19:56N 53°29' W 003°27'0 0.0
2018-Feb-22 19:29N 53°29' W 003°27'0 0.0
2018-Feb-22 18:59N 53°29' W 003°27'0 0.0
2018-Feb-22 18:29N 53°29' W 003°27'0 0.0
2018-Feb-22 17:59N 53°29' W 003°27'0 0.0
2018-Feb-22 17:29N 53°29' W 003°27'0 0.0
2018-Feb-22 16:59N 53°29' W 003°27'0 0.0
2018-Feb-22 16:30N 53°29' W 003°27'0 0.0
2018-Feb-22 16:00N 53°29' W 003°27'0 0.0
2018-Feb-22 15:30N 53°29' W 003°27'0 0.1
2018-Feb-22 15:00N 53°29' W 003°27'3 5.6
2018-Feb-22 14:30N 53°31' W 003°31'712.9
2018-Feb-22 13:58N 53°31' W 003°43'58511.2
2018-Feb-20 09:58N 43°51' W 005°43'712.3
2018-Feb-20 09:24N 43°44' W 005°42'512.2
2018-Feb-20 09:00N 43°39' W 005°41'610.9
2018-Feb-20 08:29N 43°34' W 005°41'1 2.0
2018-Feb-20 08:00N 43°34' W 005°42'0 0.0
2018-Feb-20 07:26N 43°34' W 005°42'0 0.0
2018-Feb-20 06:44N 43°34' W 005°42'0 0.0
2018-Feb-20 06:26N 43°34' W 005°42'0 0.0
2018-Feb-20 05:56N 43°34' W 005°42'0 0.0
2018-Feb-20 03:26N 43°34' W 005°42'0 0.0
2018-Feb-20 02:55N 43°34' W 005°42'0 0.0
2018-Feb-20 02:19N 43°34' W 005°42'0 0.0
2018-Feb-20 01:49N 43°34' W 005°42'0 0.0
2018-Feb-19 20:25N 43°34' W 005°42'0 0.0
2018-Feb-19 19:49N 43°34' W 005°42'0 0.0
2018-Feb-19 19:19N 43°34' W 005°42'0 0.0
2018-Feb-19 17:07N 43°34' W 005°42'0 0.0
2018-Feb-19 16:55N 43°34' W 005°42'0 0.0
2018-Feb-19 16:25N 43°34' W 005°42'0 0.0
2018-Feb-19 15:43N 43°34' W 005°42'0 0.0
2018-Feb-19 15:27N 43°34' W 005°42'1 3.3
2018-Feb-19 15:00N 43°35' W 005°40'713.1
2018-Feb-19 14:30N 43°40' W 005°46'813.3
2018-Feb-19 13:55N 43°42' W 005°56'613.5
2018-Feb-19 13:30N 43°43' W 006°04'813.4
2018-Feb-19 12:54N 43°43' W 006°15'20 0.4
2018-Feb-17 10:44N 43°41' W 005°47'311.5
2018-Feb-17 10:29N 43°39' W 005°44'510.7
2018-Feb-17 10:00N 43°35' W 005°40'1 2.9
2018-Feb-17 09:30N 43°34' W 005°42'0 0.0
2018-Feb-17 07:31N 43°34' W 005°42'0 0.0
2018-Feb-17 07:07N 43°34' W 005°42'0 0.0
2018-Feb-17 06:55N 43°34' W 005°42'0 0.0
2018-Feb-17 06:07N 43°34' W 005°42'0 0.0
2018-Feb-17 05:55N 43°34' W 005°42'0 0.0
2018-Feb-17 05:25N 43°34' W 005°42'0 0.0
2018-Feb-17 04:37N 43°34' W 005°42'0 0.0
2018-Feb-17 04:25N 43°34' W 005°42'0 0.0
2018-Feb-17 03:55N 43°34' W 005°42'0 0.0
2018-Feb-17 03:25N 43°34' W 005°42'0 0.0
2018-Feb-17 02:19N 43°34' W 005°42'0 0.0
2018-Feb-16 18:37N 43°34' W 005°42'0 0.0
2018-Feb-16 18:19N 43°34' W 005°42'0 0.0
2018-Feb-16 17:43N 43°34' W 005°42'0 0.0
2018-Feb-16 17:13N 43°34' W 005°42'0 0.2
2018-Feb-16 17:00N 43°34' W 005°42'2 4.6
2018-Feb-16 16:30N 43°36' W 005°41'612.1
2018-Feb-16 16:00N 43°40' W 005°46'912.4
2018-Feb-16 15:17N 43°43' W 005°58'412.6
2018-Feb-16 15:00N 43°43' W 006°03'  
Track history (hours):
 
Tides and Currents Weather Stations Pressure Air Temp Water Temp Dewpoint Dewpoint Depression Visibility Wind Speed Wind Dir Waves Ship Positions

Cementos Cantabrico

Last reported at 2018-Feb-24 11:56 UTC. Time now 2018-Feb-24 12:16 UTC.
Position N 53°20' W 002°45'.

Length 118 m; draft 4.7 m.

Type: Cargo ship. MMSI: 224750000.

Date/timePositionNaut miles runAvg speedWind from/ knotsBaromVisibWave heightAir tempDewpointWater temp
2018-Feb-24 11:56N 53°20' W 002°45'0 0.0
2018-Feb-24 11:29N 53°20' W 002°45'0 0.0
2018-Feb-24 10:59N 53°20' W 002°45'0 0.0
2018-Feb-24 10:29N 53°20' W 002°45'0 0.0
2018-Feb-24 09:59N 53°20' W 002°45'0 0.0
2018-Feb-24 09:29N 53°20' W 002°45'0 0.0
2018-Feb-24 08:59N 53°20' W 002°45'0 0.0
2018-Feb-24 08:29N 53°20' W 002°45'0 0.0
2018-Feb-24 07:59N 53°20' W 002°45'0 0.0
2018-Feb-24 07:29N 53°20' W 002°45'0 0.0
2018-Feb-24 06:59N 53°20' W 002°45'0 0.0
2018-Feb-24 06:29N 53°20' W 002°45'0 0.0
2018-Feb-24 05:59N 53°20' W 002°45'0 0.0
2018-Feb-24 05:29N 53°20' W 002°45'0 0.0
2018-Feb-24 04:59N 53°20' W 002°45'0 0.0
2018-Feb-24 04:26N 53°20' W 002°45'0 0.0
2018-Feb-24 03:59N 53°20' W 002°45'0 0.0
2018-Feb-24 03:29N 53°20' W 002°45'0 0.0
2018-Feb-24 02:59N 53°20' W 002°45'0 0.0
2018-Feb-24 02:29N 53°20' W 002°45'0 0.0
2018-Feb-24 01:56N 53°20' W 002°45'0 0.0
2018-Feb-24 01:29N 53°20' W 002°45'0 0.0
2018-Feb-24 00:59N 53°20' W 002°45'0 0.0
2018-Feb-24 00:29N 53°20' W 002°45'0 0.0
2018-Feb-23 23:59N 53°20' W 002°45'0 0.0
2018-Feb-23 23:29N 53°20' W 002°45'0 0.0
2018-Feb-23 22:59N 53°20' W 002°45'0 0.0
2018-Feb-23 22:29N 53°20' W 002°45'0 0.0
2018-Feb-23 21:59N 53°20' W 002°45'0 0.0
2018-Feb-23 21:29N 53°20' W 002°45'0 0.0
2018-Feb-23 20:59N 53°20' W 002°45'0 0.0
2018-Feb-23 20:29N 53°20' W 002°45'0 0.0
2018-Feb-23 19:59N 53°20' W 002°45'0 0.0
2018-Feb-23 19:29N 53°20' W 002°45'0 0.0
2018-Feb-23 18:59N 53°20' W 002°45'0 0.0
2018-Feb-23 18:29N 53°20' W 002°45'0 0.0
2018-Feb-23 17:53N 53°20' W 002°45'0 0.0
2018-Feb-23 17:29N 53°20' W 002°45'0 0.0
2018-Feb-23 16:59N 53°20' W 002°45'0 0.0
2018-Feb-23 16:29N 53°20' W 002°45'0 0.0
2018-Feb-23 15:59N 53°20' W 002°45'0 0.0
2018-Feb-23 15:29N 53°20' W 002°45'0 0.0
2018-Feb-23 14:59N 53°20' W 002°45'0 0.0
2018-Feb-23 14:29N 53°20' W 002°45'0 0.0
2018-Feb-23 13:59N 53°20' W 002°45'0 0.0
2018-Feb-23 13:25N 53°20' W 002°45'0 0.0
2018-Feb-23 12:55N 53°20' W 002°45'0 0.0
2018-Feb-23 12:28N 53°20' W 002°45'0 0.0
2018-Feb-23 11:58N 53°20' W 002°45'0 0.0
2018-Feb-23 11:28N 53°20' W 002°45'0 0.0
2018-Feb-23 10:58N 53°20' W 002°45'0 0.0
2018-Feb-23 10:28N 53°20' W 002°45'0 0.0
2018-Feb-23 09:58N 53°20' W 002°45'0 0.0
2018-Feb-23 09:28N 53°20' W 002°45'0 0.0
2018-Feb-23 08:58N 53°20' W 002°45'0 0.0
2018-Feb-23 08:28N 53°20' W 002°45'0 0.0
2018-Feb-23 07:58N 53°20' W 002°45'0 0.0
2018-Feb-23 07:28N 53°20' W 002°45'0 0.2
2018-Feb-23 07:00N 53°20' W 002°45'1 2.6
2018-Feb-23 06:30N 53°19' W 002°45'2 4.5
2018-Feb-23 06:00N 53°18' W 002°48'2 3.8
2018-Feb-23 05:30N 53°17' W 002°51'2 3.9
2018-Feb-23 05:00N 53°18' W 002°54'2 3.6
2018-Feb-23 04:30N 53°19' W 002°56'1 1.1
2018-Feb-23 04:00N 53°19' W 002°57'2 3.9
2018-Feb-23 03:30N 53°21' W 002°58'3 5.3
2018-Feb-23 02:59N 53°24' W 003°00'611.9
2018-Feb-23 02:30N 53°29' W 003°05'5 9.6
2018-Feb-23 02:00N 53°32' W 003°11'510.4
2018-Feb-23 01:30N 53°31' W 003°20'4 7.1
2018-Feb-23 01:00N 53°31' W 003°26'2 2.9
2018-Feb-23 00:27N 53°29' W 003°27'0 0.0
2018-Feb-23 00:00N 53°29' W 003°27'0 0.1
2018-Feb-22 23:21N 53°29' W 003°27'0 0.1
2018-Feb-22 23:00N 53°29' W 003°27'0 0.1
2018-Feb-22 22:30N 53°29' W 003°27'0 0.1
2018-Feb-22 22:00N 53°29' W 003°27'0 0.0
2018-Feb-22 21:30N 53°29' W 003°27'0 0.0
2018-Feb-22 21:00N 53°29' W 003°27'0 0.0
2018-Feb-22 20:29N 53°29' W 003°27'0 0.0
2018-Feb-22 19:56N 53°29' W 003°27'0 0.0
2018-Feb-22 19:29N 53°29' W 003°27'0 0.0
2018-Feb-22 18:59N 53°29' W 003°27'0 0.0
2018-Feb-22 18:29N 53°29' W 003°27'0 0.0
2018-Feb-22 17:59N 53°29' W 003°27'0 0.0
2018-Feb-22 17:29N 53°29' W 003°27'0 0.0
2018-Feb-22 16:59N 53°29' W 003°27'0 0.0
2018-Feb-22 16:30N 53°29' W 003°27'0 0.0
2018-Feb-22 16:00N 53°29' W 003°27'0 0.0
2018-Feb-22 15:30N 53°29' W 003°27'0 0.1
2018-Feb-22 15:00N 53°29' W 003°27'3 5.6
2018-Feb-22 14:30N 53°31' W 003°31'712.9
2018-Feb-22 13:58N 53°31' W 003°43'58511.2
2018-Feb-20 09:58N 43°51' W 005°43'712.3
2018-Feb-20 09:24N 43°44' W 005°42'512.2
2018-Feb-20 09:00N 43°39' W 005°41'610.9
2018-Feb-20 08:29N 43°34' W 005°41'1 2.0
2018-Feb-20 08:00N 43°34' W 005°42'0 0.0
2018-Feb-20 07:26N 43°34' W 005°42'0 0.0
2018-Feb-20 06:44N 43°34' W 005°42'0 0.0
2018-Feb-20 06:26N 43°34' W 005°42'0 0.0
2018-Feb-20 05:56N 43°34' W 005°42'0 0.0
2018-Feb-20 03:26N 43°34' W 005°42'0 0.0
2018-Feb-20 02:55N 43°34' W 005°42'0 0.0
2018-Feb-20 02:19N 43°34' W 005°42'0 0.0
2018-Feb-20 01:49N 43°34' W 005°42'0 0.0
2018-Feb-19 20:25N 43°34' W 005°42'0 0.0
2018-Feb-19 19:49N 43°34' W 005°42'0 0.0
2018-Feb-19 19:19N 43°34' W 005°42'0 0.0
2018-Feb-19 17:07N 43°34' W 005°42'0 0.0
2018-Feb-19 16:55N 43°34' W 005°42'0 0.0
2018-Feb-19 16:25N 43°34' W 005°42'0 0.0
2018-Feb-19 15:43N 43°34' W 005°42'0 0.0
2018-Feb-19 15:27N 43°34' W 005°42'1 3.3
2018-Feb-19 15:00N 43°35' W 005°40'713.1
2018-Feb-19 14:30N 43°40' W 005°46'813.3
2018-Feb-19 13:55N 43°42' W 005°56'613.5
2018-Feb-19 13:30N 43°43' W 006°04'813.4
2018-Feb-19 12:54N 43°43' W 006°15'20 0.4
2018-Feb-17 10:44N 43°41' W 005°47'311.5
2018-Feb-17 10:29N 43°39' W 005°44'510.7
2018-Feb-17 10:00N 43°35' W 005°40'1 2.9
2018-Feb-17 09:30N 43°34' W 005°42'0 0.0
2018-Feb-17 07:31N 43°34' W 005°42'0 0.0
2018-Feb-17 07:07N 43°34' W 005°42'0 0.0
2018-Feb-17 06:55N 43°34' W 005°42'0 0.0
2018-Feb-17 06:07N 43°34' W 005°42'0 0.0
2018-Feb-17 05:55N 43°34' W 005°42'0 0.0
2018-Feb-17 05:25N 43°34' W 005°42'0 0.0
2018-Feb-17 04:37N 43°34' W 005°42'0 0.0
2018-Feb-17 04:25N 43°34' W 005°42'0 0.0
2018-Feb-17 03:55N 43°34' W 005°42'0 0.0
2018-Feb-17 03:25N 43°34' W 005°42'0 0.0
2018-Feb-17 02:19N 43°34' W 005°42'0 0.0
2018-Feb-16 18:37N 43°34' W 005°42'0 0.0
2018-Feb-16 18:19N 43°34' W 005°42'0 0.0
2018-Feb-16 17:43N 43°34' W 005°42'0 0.0
2018-Feb-16 17:13N 43°34' W 005°42'0 0.2
2018-Feb-16 17:00N 43°34' W 005°42'2 4.6
2018-Feb-16 16:30N 43°36' W 005°41'612.1
2018-Feb-16 16:00N 43°40' W 005°46'912.4
2018-Feb-16 15:17N 43°43' W 005°58'412.6
2018-Feb-16 15:00N 43°43' W 006°03'  

Dump ship's entire track history